createdAt,value
2022-08-19T00:00:16.349Z,26.69
2022-08-19T00:02:49.940Z,26.59
2022-08-19T00:05:21.045Z,26.39
2022-08-19T00:07:51.745Z,26.42
2022-08-19T00:10:21.760Z,26.50
2022-08-19T00:12:50.423Z,26.61
2022-08-19T00:15:23.662Z,26.56
2022-08-19T00:17:52.049Z,26.48
2022-08-19T00:20:23.490Z,26.45
2022-08-19T00:22:52.021Z,26.41
2022-08-19T00:25:30.153Z,26.29
2022-08-19T00:27:59.245Z,26.25
2022-08-19T00:30:29.865Z,26.27
2022-08-19T00:32:58.681Z,26.26
2022-08-19T00:35:29.086Z,26.27
2022-08-19T00:37:58.276Z,26.19
2022-08-19T00:40:27.486Z,26.13
2022-08-19T00:42:55.789Z,25.93
2022-08-19T00:45:26.565Z,25.83
2022-08-19T00:47:54.861Z,25.80
2022-08-19T00:50:24.209Z,25.72
2022-08-19T00:52:53.767Z,25.46
2022-08-19T00:55:25.803Z,25.31
2022-08-19T00:57:58.501Z,25.25
2022-08-19T01:00:29.160Z,25.07
2022-08-19T01:02:57.892Z,24.82
2022-08-19T01:05:31.490Z,24.64
2022-08-19T01:08:03.190Z,24.50
2022-08-19T01:10:36.953Z,24.47
2022-08-19T01:13:06.672Z,24.23
2022-08-19T01:15:42.491Z,24.16
2022-08-19T01:18:13.785Z,24.12
2022-08-19T01:20:43.290Z,24.05
2022-08-19T01:23:11.630Z,23.86
2022-08-19T01:25:47.950Z,23.77
2022-08-19T01:28:40.078Z,23.70
2022-08-19T01:31:26.381Z,23.58
2022-08-19T01:33:58.380Z,23.41
2022-08-19T01:36:40.275Z,23.27
2022-08-19T01:39:12.406Z,23.22
2022-08-19T01:41:41.009Z,23.09
2022-08-19T01:44:18.447Z,22.89
2022-08-19T01:46:50.280Z,22.81
2022-08-19T01:49:21.560Z,22.73
2022-08-19T01:51:51.540Z,22.65
2022-08-19T01:54:23.475Z,22.59
2022-08-19T01:57:02.527Z,22.50
2022-08-19T01:59:32.312Z,22.44
2022-08-19T02:02:00.690Z,22.34
2022-08-19T02:04:29.121Z,22.28
2022-08-19T02:06:57.451Z,22.22
2022-08-19T02:09:25.780Z,22.17
2022-08-19T02:11:53.995Z,22.09
2022-08-19T02:14:22.231Z,22.03
2022-08-19T02:16:50.499Z,22.03
2022-08-19T02:19:19.347Z,21.98
2022-08-19T02:21:48.310Z,21.93
2022-08-19T02:24:16.796Z,21.85
2022-08-19T02:26:44.965Z,21.83
2022-08-19T02:29:13.225Z,21.81
2022-08-19T02:31:41.562Z,21.78
2022-08-19T02:34:10.365Z,21.62
2022-08-19T02:36:42.302Z,21.54
2022-08-19T02:39:12.113Z,21.52
2022-08-19T02:41:40.519Z,21.53
2022-08-19T02:44:28.920Z,21.43
2022-08-19T02:46:57.481Z,21.41
2022-08-19T02:49:25.800Z,21.36
2022-08-19T02:51:53.970Z,21.33
2022-08-19T02:54:22.265Z,21.35
2022-08-19T02:56:51.075Z,21.33
2022-08-19T02:59:22.903Z,21.29
2022-08-19T03:01:51.667Z,21.16
2022-08-19T03:04:21.193Z,21.09
2022-08-19T03:06:50.103Z,21.05
2022-08-19T03:09:20.529Z,21.07
2022-08-19T03:11:48.995Z,21.06
2022-08-19T03:14:21.155Z,21.04
2022-08-19T03:16:52.355Z,20.87
2022-08-19T03:19:23.288Z,20.75
2022-08-19T03:21:53.156Z,20.64
2022-08-19T03:24:22.730Z,20.62
2022-08-19T03:26:54.772Z,20.57
2022-08-19T03:29:30.885Z,20.51
2022-08-19T03:32:06.120Z,20.52
2022-08-19T03:34:36.845Z,20.56
2022-08-19T03:37:16.835Z,20.54
2022-08-19T03:39:45.116Z,20.51
2022-08-19T03:42:38.275Z,20.40
2022-08-19T03:45:02.927Z,20.40
2022-08-19T03:47:32.431Z,20.40
2022-08-19T03:50:00.745Z,20.40
2022-08-19T03:52:29.165Z,20.37
2022-08-19T03:54:57.400Z,20.39
2022-08-19T03:57:31.793Z,20.35
2022-08-19T04:00:12.698Z,20.33
2022-08-19T04:02:58.046Z,20.24
2022-08-19T04:05:31.717Z,20.26
2022-08-19T04:08:01.000Z,20.23
2022-08-19T04:10:30.115Z,20.17
2022-08-19T04:12:58.505Z,20.12
2022-08-19T04:15:26.665Z,20.08
2022-08-19T04:17:55.080Z,20.07
2022-08-19T04:20:23.561Z,20.07
2022-08-19T04:22:55.019Z,20.07
2022-08-19T04:25:23.400Z,20.07
2022-08-19T04:27:51.875Z,20.09
2022-08-19T04:30:21.158Z,20.09
2022-08-19T04:32:49.481Z,20.06
2022-08-19T04:35:20.138Z,20.04
2022-08-19T04:37:50.305Z,20.02
2022-08-19T04:40:36.978Z,19.95
2022-08-19T04:43:05.315Z,19.91
2022-08-19T04:45:39.451Z,19.87
2022-08-19T04:48:25.669Z,19.85
2022-08-19T04:51:01.631Z,19.78
2022-08-19T04:53:37.735Z,19.76
2022-08-19T04:56:15.030Z,19.73
2022-08-19T04:58:46.119Z,19.71
2022-08-19T05:01:21.704Z,19.72
2022-08-19T05:03:51.061Z,19.71
2022-08-19T05:06:21.956Z,19.76
2022-08-19T05:08:50.875Z,19.79
2022-08-19T05:11:26.300Z,19.81
2022-08-19T05:13:55.220Z,19.77
2022-08-19T05:16:25.714Z,19.74
2022-08-19T05:19:12.416Z,19.74
2022-08-19T05:22:01.010Z,19.75
2022-08-19T05:24:29.798Z,19.78
2022-08-19T05:26:59.777Z,19.75
2022-08-19T05:29:36.165Z,19.73
2022-08-19T05:32:07.475Z,19.68
2022-08-19T05:34:35.730Z,19.67
2022-08-19T05:37:06.266Z,19.62
2022-08-19T05:39:36.574Z,19.59
2022-08-19T05:42:09.156Z,19.55
2022-08-19T05:44:47.560Z,19.51
2022-08-19T05:47:16.839Z,19.46
2022-08-19T05:49:45.320Z,19.40
2022-08-19T05:52:18.968Z,19.39
2022-08-19T05:54:51.359Z,19.39
2022-08-19T05:57:21.315Z,19.40
2022-08-19T05:59:52.692Z,19.37
2022-08-19T06:02:22.133Z,19.34
2022-08-19T06:04:51.475Z,19.32
2022-08-19T06:07:19.716Z,19.32
2022-08-19T06:09:59.644Z,19.31
2022-08-19T06:12:36.835Z,19.28
2022-08-19T06:15:12.211Z,19.25
2022-08-19T06:17:40.591Z,19.23
2022-08-19T06:20:14.984Z,19.22
2022-08-19T06:22:44.355Z,19.21
2022-08-19T06:25:13.870Z,19.19
2022-08-19T06:28:14.153Z,19.17
2022-08-19T06:30:31.428Z,19.13
2022-08-19T06:32:59.625Z,19.08
2022-08-19T06:35:28.241Z,19.04
2022-08-19T06:37:56.686Z,19.04
2022-08-19T06:40:25.427Z,19.06
2022-08-19T06:42:55.507Z,19.09
2022-08-19T06:45:34.775Z,19.10
2022-08-19T06:48:04.752Z,19.08
2022-08-19T06:50:33.231Z,19.05
2022-08-19T06:53:04.316Z,19.01
2022-08-19T06:55:33.471Z,19.02
2022-08-19T06:58:05.551Z,19.01
2022-08-19T07:00:35.555Z,19.00
2022-08-19T07:03:07.643Z,18.98
2022-08-19T07:05:45.884Z,18.96
2022-08-19T07:08:15.505Z,18.96
2022-08-19T07:10:47.776Z,18.96
2022-08-19T07:13:16.201Z,18.95
2022-08-19T07:15:44.426Z,18.92
2022-08-19T07:18:12.581Z,18.89
2022-08-19T07:20:43.726Z,18.87
2022-08-19T07:23:16.112Z,18.84
2022-08-19T07:25:53.026Z,18.84
2022-08-19T07:28:24.730Z,18.85
2022-08-19T07:30:54.756Z,18.85
2022-08-19T07:33:23.835Z,18.82
2022-08-19T07:35:57.225Z,18.80
2022-08-19T07:38:25.635Z,18.82
2022-08-19T07:40:55.855Z,18.78
2022-08-19T07:43:35.056Z,18.74
2022-08-19T07:46:03.668Z,18.70
2022-08-19T07:48:32.031Z,18.66
2022-08-19T07:51:03.871Z,18.63
2022-08-19T07:53:39.157Z,18.61
2022-08-19T07:56:09.475Z,18.57
2022-08-19T07:58:40.997Z,18.54
2022-08-19T08:01:12.676Z,18.50
2022-08-19T08:03:59.835Z,18.50
2022-08-19T08:06:46.916Z,18.47
2022-08-19T08:12:33.482Z,18.38
2022-08-19T08:15:12.436Z,18.36
2022-08-19T08:17:49.503Z,18.34
2022-08-19T08:20:21.156Z,18.29
2022-08-19T08:23:08.272Z,18.28
2022-08-19T08:25:38.240Z,18.27
2022-08-19T08:28:07.396Z,18.26
2022-08-19T08:30:37.964Z,18.22
2022-08-19T08:33:06.527Z,18.20
2022-08-19T08:35:35.646Z,18.19
2022-08-19T08:38:06.440Z,18.16
2022-08-19T08:40:56.197Z,18.15
2022-08-19T08:43:32.614Z,18.13
2022-08-19T08:46:12.359Z,18.13
2022-08-19T08:48:56.360Z,18.13
2022-08-19T08:51:35.769Z,18.10
2022-08-19T08:54:09.888Z,18.08
2022-08-19T08:56:41.797Z,18.08
2022-08-19T08:59:34.121Z,18.09
2022-08-19T09:02:02.911Z,18.06
2022-08-19T09:04:31.715Z,18.03
2022-08-19T09:07:47.302Z,17.97
2022-08-19T09:10:25.848Z,17.95
2022-08-19T09:13:37.840Z,17.95
2022-08-19T09:16:13.223Z,17.96
2022-08-19T09:18:45.955Z,17.94
2022-08-19T09:21:15.566Z,17.91
2022-08-19T09:23:45.167Z,17.89
2022-08-19T09:26:17.176Z,17.86
2022-08-19T09:28:50.435Z,17.86
2022-08-19T09:31:27.075Z,17.85
2022-08-19T09:33:59.235Z,17.86
2022-08-19T09:36:40.730Z,17.85
2022-08-19T09:39:15.988Z,17.83
2022-08-19T09:41:47.295Z,17.82
2022-08-19T09:44:18.199Z,17.76
2022-08-19T09:46:49.000Z,17.73
2022-08-19T09:49:19.851Z,17.71
2022-08-19T09:51:53.706Z,17.67
2022-08-19T09:54:23.661Z,17.66
2022-08-19T09:56:57.956Z,17.62
2022-08-19T09:59:26.275Z,17.61
2022-08-19T10:02:03.582Z,17.60
2022-08-19T10:04:55.560Z,17.59
2022-08-19T10:07:36.145Z,17.56
2022-08-19T10:10:08.910Z,17.51
2022-08-19T10:12:38.825Z,17.47
2022-08-19T10:15:08.044Z,17.44
2022-08-19T10:17:36.994Z,17.41
2022-08-19T10:20:07.959Z,17.42
2022-08-19T10:22:37.955Z,17.40
2022-08-19T10:25:08.035Z,17.41
2022-08-19T10:27:36.355Z,17.37
2022-08-19T10:30:10.113Z,17.34
2022-08-19T10:32:46.428Z,17.32
2022-08-19T10:35:16.258Z,17.29
2022-08-19T10:37:57.462Z,17.27
2022-08-19T10:40:30.352Z,17.28
2022-08-19T10:42:58.757Z,17.26
2022-08-19T10:45:28.515Z,17.23
2022-08-19T10:47:56.819Z,17.22
2022-08-19T10:50:43.245Z,17.18
2022-08-19T10:53:11.554Z,17.12
2022-08-19T10:55:59.081Z,17.10
2022-08-19T10:58:27.944Z,17.07
2022-08-19T11:01:00.893Z,17.07
2022-08-19T11:03:32.995Z,17.08
2022-08-19T11:06:07.797Z,17.10
2022-08-19T11:08:39.325Z,17.12
2022-08-19T11:11:09.705Z,17.13
2022-08-19T11:13:41.320Z,17.18
2022-08-19T11:16:11.563Z,17.23
2022-08-19T11:18:43.075Z,17.24
2022-08-19T11:21:21.314Z,17.27
2022-08-19T11:23:53.315Z,17.31
2022-08-19T11:26:22.839Z,17.34
2022-08-19T11:28:54.429Z,17.39
2022-08-19T11:31:29.162Z,17.45
2022-08-19T11:34:03.364Z,17.51
2022-08-19T11:36:34.595Z,17.57
2022-08-19T11:39:03.720Z,17.62
2022-08-19T11:41:32.014Z,17.66
2022-08-19T11:44:00.679Z,17.67
2022-08-19T11:46:32.360Z,17.69
2022-08-19T11:49:02.442Z,17.73
2022-08-19T11:51:32.194Z,17.76
2022-08-19T11:54:02.025Z,17.80
2022-08-19T11:56:30.914Z,17.84
2022-08-19T11:58:59.239Z,17.86
2022-08-19T12:01:28.670Z,17.85
2022-08-19T12:03:58.809Z,17.88
2022-08-19T12:06:31.079Z,17.89
2022-08-19T12:09:02.274Z,17.92
2022-08-19T12:11:34.534Z,17.95
2022-08-19T12:14:03.234Z,17.96
2022-08-19T12:16:34.595Z,17.97
2022-08-19T12:19:07.235Z,18.01
2022-08-19T12:21:38.125Z,18.01
2022-08-19T12:24:07.719Z,18.02
2022-08-19T12:26:53.536Z,18.06
2022-08-19T12:29:24.137Z,18.09
2022-08-19T12:31:53.475Z,18.08
2022-08-19T12:34:22.279Z,18.09
2022-08-19T12:36:51.554Z,18.09
2022-08-19T12:39:20.190Z,18.08
2022-08-19T12:41:54.354Z,18.02
2022-08-19T12:44:29.437Z,18.01
2022-08-19T12:46:59.196Z,18.01
2022-08-19T12:49:52.354Z,18.06
2022-08-19T12:52:21.460Z,18.09
2022-08-19T12:54:54.078Z,18.09
2022-08-19T12:57:32.089Z,18.10
2022-08-19T13:00:22.679Z,18.12
2022-08-19T13:02:54.280Z,18.14
2022-08-19T13:05:27.931Z,18.15
2022-08-19T13:07:58.435Z,18.13
2022-08-19T13:10:30.904Z,18.13
2022-08-19T13:13:01.482Z,18.15
2022-08-19T13:15:33.175Z,18.13
2022-08-19T13:18:01.469Z,18.12
2022-08-19T13:20:30.185Z,18.14
2022-08-19T13:22:59.243Z,18.15
2022-08-19T13:25:28.585Z,18.16
2022-08-19T13:28:01.320Z,18.17
2022-08-19T13:30:47.961Z,18.20
2022-08-19T13:33:17.322Z,18.22
2022-08-19T13:36:02.830Z,18.23
2022-08-19T13:38:32.317Z,18.22
2022-08-19T13:41:12.146Z,18.23
2022-08-19T13:43:41.787Z,18.23
2022-08-19T13:46:16.514Z,18.24
2022-08-19T13:48:46.060Z,18.22
2022-08-19T13:51:14.565Z,18.21
2022-08-19T13:53:47.874Z,18.19
2022-08-19T13:56:25.870Z,18.18
2022-08-19T13:58:55.310Z,18.15
2022-08-19T14:01:28.515Z,18.16
2022-08-19T14:03:56.996Z,18.17
2022-08-19T14:06:25.316Z,18.21
2022-08-19T14:08:54.755Z,18.21
2022-08-19T14:11:24.831Z,18.24
2022-08-19T14:13:54.115Z,18.25
2022-08-19T14:16:23.555Z,18.25
2022-08-19T14:18:52.041Z,18.27
2022-08-19T14:21:25.561Z,18.29
2022-08-19T14:23:54.506Z,18.32
2022-08-19T14:26:24.196Z,18.37
2022-08-19T14:28:54.188Z,18.39
2022-08-19T14:31:29.109Z,18.43
2022-08-19T14:33:59.240Z,18.47
2022-08-19T14:36:27.565Z,18.52
2022-08-19T14:38:56.085Z,18.55
2022-08-19T14:41:25.915Z,18.55
2022-08-19T14:43:55.846Z,18.57
2022-08-19T14:46:28.239Z,18.62
2022-08-19T14:48:59.942Z,18.65
2022-08-19T14:51:28.795Z,18.67
2022-08-19T14:53:57.961Z,18.71
2022-08-19T14:56:29.635Z,18.73
2022-08-19T14:59:01.156Z,18.75
2022-08-19T15:01:30.307Z,18.79
2022-08-19T15:03:58.667Z,18.81
2022-08-19T15:06:27.556Z,18.83
2022-08-19T15:08:57.776Z,18.85
2022-08-19T15:11:30.115Z,18.87
2022-08-19T15:14:00.748Z,18.91
2022-08-19T15:16:29.606Z,18.95
2022-08-19T15:19:01.637Z,18.96
2022-08-19T15:21:31.720Z,18.96
2022-08-19T15:24:00.920Z,18.96
2022-08-19T15:26:33.810Z,18.97
2022-08-19T15:29:03.880Z,18.98
2022-08-19T15:31:38.123Z,19.01
2022-08-19T15:34:08.032Z,19.06
2022-08-19T15:36:37.483Z,19.12
2022-08-19T15:39:08.310Z,19.18
2022-08-19T15:41:40.266Z,19.19
2022-08-19T15:44:11.730Z,19.15
2022-08-19T15:46:42.717Z,19.21
2022-08-19T15:49:15.796Z,19.31
2022-08-19T15:51:47.086Z,19.35
2022-08-19T15:54:18.676Z,19.35
2022-08-19T15:57:07.035Z,19.42
2022-08-19T15:59:55.950Z,19.51
2022-08-19T16:02:49.715Z,19.57
2022-08-19T16:05:44.998Z,19.61
2022-08-19T16:08:13.327Z,19.59
2022-08-19T16:10:41.931Z,19.54
2022-08-19T16:13:11.829Z,19.55
2022-08-19T16:15:42.780Z,19.62
2022-08-19T16:18:11.401Z,19.66
2022-08-19T16:20:39.715Z,19.73
2022-08-19T16:23:08.155Z,19.83
2022-08-19T16:25:37.249Z,19.92
2022-08-19T16:28:08.050Z,20.01
2022-08-19T16:30:40.042Z,20.06
2022-08-19T16:33:09.709Z,20.17
2022-08-19T16:35:38.305Z,20.20
2022-08-19T16:38:07.885Z,20.28
2022-08-19T16:40:36.675Z,20.38
2022-08-19T16:43:05.364Z,20.44
2022-08-19T16:45:33.800Z,20.45
2022-08-19T16:48:02.128Z,20.48
2022-08-19T16:50:48.328Z,20.50
2022-08-19T16:53:20.368Z,20.62
2022-08-19T16:55:57.518Z,20.75
2022-08-19T16:58:29.926Z,20.89
2022-08-19T17:01:03.904Z,21.04
2022-08-19T17:03:36.352Z,21.13
2022-08-19T17:06:20.521Z,21.21
2022-08-19T17:08:55.395Z,21.31
2022-08-19T17:11:26.336Z,21.44
2022-08-19T17:13:56.521Z,21.58
2022-08-19T17:16:27.565Z,21.62
2022-08-19T17:18:57.880Z,21.67
2022-08-19T17:21:29.483Z,21.71
2022-08-19T17:23:58.725Z,21.80
2022-08-19T17:26:28.120Z,21.90
2022-08-19T17:28:58.560Z,22.01
2022-08-19T17:31:29.560Z,22.12
2022-08-19T17:33:59.760Z,22.19
2022-08-19T17:36:30.170Z,22.29
2022-08-19T17:39:01.331Z,22.42
2022-08-19T17:41:31.245Z,22.51
2022-08-19T17:43:59.766Z,22.61
2022-08-19T17:46:30.927Z,22.64
2022-08-19T17:48:59.375Z,22.73
2022-08-19T17:51:33.416Z,22.87
2022-08-19T17:54:02.375Z,23.07
2022-08-19T17:56:30.682Z,23.19
2022-08-19T17:59:00.423Z,23.31
2022-08-19T18:01:51.810Z,23.42
2022-08-19T18:04:20.489Z,23.55
2022-08-19T18:06:52.972Z,23.67
2022-08-19T18:09:28.195Z,23.82
2022-08-19T18:11:58.385Z,23.90
2022-08-19T18:14:33.795Z,23.96
2022-08-19T18:17:10.113Z,23.97
2022-08-19T18:19:43.906Z,24.03
2022-08-19T18:22:24.355Z,24.12
2022-08-19T18:24:52.675Z,24.24
2022-08-19T18:27:21.715Z,24.37
2022-08-19T18:29:50.441Z,24.49
2022-08-19T18:32:23.545Z,24.62
2022-08-19T18:34:54.115Z,24.75
2022-08-19T18:37:23.485Z,24.84
2022-08-19T18:40:09.941Z,24.94
2022-08-19T18:43:02.526Z,25.05
2022-08-19T18:45:50.030Z,25.19
2022-08-19T18:48:36.477Z,25.33
2022-08-19T18:51:05.650Z,25.46
2022-08-19T18:53:36.681Z,25.63
2022-08-19T18:56:06.560Z,25.70
2022-08-19T18:58:35.886Z,25.81
2022-08-19T19:01:14.230Z,25.86
2022-08-19T19:03:46.794Z,25.93
2022-08-19T19:06:20.760Z,26.01
2022-08-19T19:08:51.090Z,26.13
2022-08-19T19:11:41.635Z,26.30
2022-08-19T19:14:23.244Z,26.43
2022-08-19T19:17:02.924Z,26.60
2022-08-19T19:19:32.710Z,26.72
2022-08-19T19:22:03.170Z,26.81
2022-08-19T19:24:33.705Z,26.85
2022-08-19T19:27:07.891Z,26.97
2022-08-19T19:29:39.155Z,27.20
2022-08-19T19:32:09.401Z,27.31
2022-08-19T19:34:41.550Z,27.35
2022-08-19T19:37:09.956Z,27.42
2022-08-19T19:39:45.177Z,27.63
2022-08-19T19:42:21.264Z,27.75
2022-08-19T19:44:52.153Z,27.80
2022-08-19T19:47:22.191Z,27.80
2022-08-19T19:50:13.318Z,27.89
2022-08-19T19:52:42.390Z,27.87
2022-08-19T19:55:18.936Z,27.95
2022-08-19T19:57:51.032Z,28.06
2022-08-19T20:00:19.967Z,28.16
2022-08-19T20:02:50.509Z,28.25
2022-08-19T20:05:22.742Z,28.31
2022-08-19T20:08:10.679Z,28.42
2022-08-19T20:10:40.330Z,28.59
2022-08-19T20:13:09.318Z,28.63
2022-08-19T20:15:42.331Z,28.74
2022-08-19T20:18:13.006Z,28.75
2022-08-19T20:20:42.455Z,28.79
2022-08-19T20:23:10.667Z,28.77
2022-08-19T20:25:40.515Z,28.93
2022-08-19T20:28:09.735Z,29.16
2022-08-19T20:30:42.033Z,29.22
2022-08-19T20:33:16.450Z,29.30
2022-08-19T20:35:46.017Z,29.38
2022-08-19T20:38:15.045Z,29.50
2022-08-19T20:40:43.722Z,29.48
2022-08-19T20:43:16.356Z,29.46
2022-08-19T20:45:44.996Z,29.43
2022-08-19T20:48:14.602Z,29.45
2022-08-19T20:50:43.246Z,29.46
2022-08-19T20:53:17.076Z,29.52
2022-08-19T20:55:47.556Z,29.72
2022-08-19T20:58:17.156Z,29.93
2022-08-19T21:00:46.983Z,29.95
2022-08-19T21:03:23.080Z,29.94
2022-08-19T21:05:51.795Z,29.85
2022-08-19T21:08:20.205Z,29.88
2022-08-19T21:10:50.755Z,30.02
2022-08-19T21:13:20.841Z,30.20
2022-08-19T21:15:49.642Z,30.26
2022-08-19T21:18:20.611Z,30.32
2022-08-19T21:20:50.201Z,30.30
2022-08-19T21:23:22.296Z,30.28
2022-08-19T21:25:54.887Z,30.23
2022-08-19T21:28:35.843Z,30.37
2022-08-19T21:31:07.147Z,30.53
2022-08-19T21:33:35.647Z,30.58
2022-08-19T21:36:05.511Z,30.66
2022-08-19T21:38:34.755Z,30.75
2022-08-19T21:41:05.925Z,30.76
2022-08-19T21:43:36.291Z,30.89
2022-08-19T21:46:05.405Z,31.00
2022-08-19T21:48:34.039Z,31.01
2022-08-19T21:51:02.441Z,31.07
2022-08-19T21:53:31.661Z,31.17
2022-08-19T21:56:07.640Z,31.26
2022-08-19T21:58:39.391Z,31.53
2022-08-19T22:01:08.908Z,31.42
2022-08-19T22:03:38.585Z,31.35
2022-08-19T22:06:08.822Z,31.39
2022-08-19T22:08:38.031Z,31.36
2022-08-19T22:11:06.525Z,31.43
2022-08-19T22:13:40.362Z,31.35
2022-08-19T22:16:10.612Z,31.45
2022-08-19T22:18:39.485Z,31.43
2022-08-19T22:21:11.713Z,31.26
2022-08-19T22:23:47.875Z,30.99
2022-08-19T22:26:18.072Z,31.03
2022-08-19T22:28:46.431Z,31.19
2022-08-19T22:31:15.722Z,31.19
2022-08-19T22:33:44.286Z,30.99
2022-08-19T22:36:12.685Z,30.83
2022-08-19T22:38:41.011Z,30.79
2022-08-19T22:41:09.955Z,30.74
2022-08-19T22:43:38.915Z,30.77
2022-08-19T22:46:17.249Z,30.76
2022-08-19T22:48:47.236Z,30.59
2022-08-19T22:51:34.985Z,30.53
2022-08-19T22:54:03.710Z,30.46
2022-08-19T22:56:31.945Z,30.59
2022-08-19T22:59:00.360Z,30.48
2022-08-19T23:01:30.645Z,30.29
2022-08-19T23:04:03.783Z,30.10
2022-08-19T23:06:34.666Z,29.70
2022-08-19T23:09:07.717Z,29.33
2022-08-19T23:11:42.009Z,29.25
2022-08-19T23:14:13.406Z,29.13
2022-08-19T23:16:42.595Z,29.08
2022-08-19T23:19:12.520Z,29.03
2022-08-19T23:21:42.515Z,28.91
2022-08-19T23:24:11.554Z,28.74
2022-08-19T23:27:00.675Z,28.50
2022-08-19T23:29:47.334Z,28.36
2022-08-19T23:32:17.637Z,28.16
2022-08-19T23:34:46.196Z,28.06
2022-08-19T23:37:14.737Z,28.10
2022-08-19T23:39:43.440Z,28.11
2022-08-19T23:42:14.595Z,28.12
2022-08-19T23:44:52.340Z,28.06
2022-08-19T23:47:22.435Z,28.04
2022-08-19T23:49:51.555Z,27.96
2022-08-19T23:52:20.257Z,27.91
2022-08-19T23:54:48.486Z,27.90
2022-08-19T23:57:16.943Z,27.92
2022-08-19T23:59:46.085Z,27.91
